<?xml version="1.0" encoding="UTF-8" standalone="no" ?>
<gpx xmlns="http://www.topografix.com/GPX/1/1" xmlns:xsi="http://www.w3.org/2001/XMLSchema-instance" xsi:schemaLocation="http://www.topografix.com/GPX/1/1 http://www.topografix.com/GPX/1/1/gpx.xsd" version="1.1" creator="VisuGPX - https://www.visugpx.com">
  <metadata>
    <name>clue du raton</name>
    <desc><![CDATA[clue du Raton]]></desc>
  </metadata>
  <trk>
    <name><![CDATA[clue du Raton 2016-07-10 08:34]]></name>
    <desc><![CDATA[<h1>OruxMaps</h1><br /><hr align="center" width="480" style="height: 2px; width: 517px"/><h2>Nom: clue du Raton 2016-07-10 08:34</h2><br /><p>Temps de départ: 07/10/2016 08:34</p><p>Temps d'arrivée: 07/10/2016 17:40</p><p>Distance: 7,3km (09:05)</p><p>Temps déplacement: 02:10</p><p>Vitesse moyenne: 0,8km/h</p><p>Vitesse moyenne: 3,4km/h</p><p>Vitess Max.: 18km/h</p><p>Altitude minimale: 1028m</p><p>Altitude maximale: 1616m</p><p>Vitesse d'élévation: 214,9m/h</p><p>Vitesse de descente: -145,2m/h</p><p>Gain Altitude: 766m</p><p>Perte Altitude: -786m</p><p>Temps d'élévation: 03:34</p><p>Temps de descente: 05:25</p><hr align="center" width="480" style="height: 2px; width: 517px"/>]]></desc>
    <trkseg>
      <trkpt lat="44.04318" lon="6.97631">
        <ele>1062.04</ele>
        <time>2016-07-10T06:34:57Z</time>
      </trkpt>
      <trkpt lat="44.04306" lon="6.97607">
        <ele>1102.89</ele>
        <time>2016-07-10T06:35:07Z</time>
      </trkpt>
      <trkpt lat="44.04298" lon="6.97585">
        <ele>1086.14</ele>
        <time>2016-07-10T06:35:19Z</time>
      </trkpt>
      <trkpt lat="44.04306" lon="6.97561">
        <ele>1058.18</ele>
        <time>2016-07-10T06:38:47Z</time>
      </trkpt>
      <trkpt lat="44.04318" lon="6.9758">
        <ele>1069.87</ele>
        <time>2016-07-10T06:40:16Z</time>
      </trkpt>
      <trkpt lat="44.04301" lon="6.97554">
        <ele>1072.65</ele>
        <time>2016-07-10T06:40:54Z</time>
      </trkpt>
      <trkpt lat="44.04324" lon="6.97568">
        <ele>1056.46</ele>
        <time>2016-07-10T06:41:00Z</time>
      </trkpt>
      <trkpt lat="44.04341" lon="6.9758">
        <ele>1051.91</ele>
        <time>2016-07-10T06:41:52Z</time>
      </trkpt>
      <trkpt lat="44.04323" lon="6.97585">
        <ele>1069.8</ele>
        <time>2016-07-10T06:43:49Z</time>
      </trkpt>
      <trkpt lat="44.04321" lon="6.97559">
        <ele>1076.17</ele>
        <time>2016-07-10T06:45:31Z</time>
      </trkpt>
      <trkpt lat="44.04321" lon="6.97534">
        <ele>1085.15</ele>
        <time>2016-07-10T06:48:06Z</time>
      </trkpt>
      <trkpt lat="44.04313" lon="6.97511">
        <ele>1082.95</ele>
        <time>2016-07-10T06:49:18Z</time>
      </trkpt>
      <trkpt lat="44.04313" lon="6.97454">
        <ele>1095.93</ele>
        <time>2016-07-10T06:50:50Z</time>
      </trkpt>
      <trkpt lat="44.04299" lon="6.97439">
        <ele>1118.04</ele>
        <time>2016-07-10T06:52:58Z</time>
      </trkpt>
      <trkpt lat="44.04297" lon="6.97413">
        <ele>1142.3</ele>
        <time>2016-07-10T06:54:50Z</time>
      </trkpt>
      <trkpt lat="44.0429" lon="6.97389">
        <ele>1132.2</ele>
        <time>2016-07-10T06:56:25Z</time>
      </trkpt>
      <trkpt lat="44.04284" lon="6.97366">
        <ele>1167.99</ele>
        <time>2016-07-10T06:58:49Z</time>
      </trkpt>
      <trkpt lat="44.0428" lon="6.97341">
        <ele>1180.79</ele>
        <time>2016-07-10T07:00:17Z</time>
      </trkpt>
      <trkpt lat="44.04282" lon="6.97316">
        <ele>1191.59</ele>
        <time>2016-07-10T07:02:37Z</time>
      </trkpt>
      <trkpt lat="44.04275" lon="6.97292">
        <ele>1206.04</ele>
        <time>2016-07-10T07:06:04Z</time>
      </trkpt>
      <trkpt lat="44.04273" lon="6.97267">
        <ele>1227.92</ele>
        <time>2016-07-10T07:08:16Z</time>
      </trkpt>
      <trkpt lat="44.04283" lon="6.97228">
        <ele>1239.91</ele>
        <time>2016-07-10T07:10:51Z</time>
      </trkpt>
      <trkpt lat="44.04283" lon="6.97201">
        <ele>1263.85</ele>
        <time>2016-07-10T07:14:38Z</time>
      </trkpt>
      <trkpt lat="44.04287" lon="6.97176">
        <ele>1281.82</ele>
        <time>2016-07-10T07:21:01Z</time>
      </trkpt>
      <trkpt lat="44.04297" lon="6.97155">
        <ele>1291.39</ele>
        <time>2016-07-10T07:22:09Z</time>
      </trkpt>
      <trkpt lat="44.04306" lon="6.97133">
        <ele>1300.54</ele>
        <time>2016-07-10T07:23:34Z</time>
      </trkpt>
      <trkpt lat="44.04324" lon="6.97112">
        <ele>1314.3</ele>
        <time>2016-07-10T07:25:54Z</time>
      </trkpt>
      <trkpt lat="44.04338" lon="6.97094">
        <ele>1327.17</ele>
        <time>2016-07-10T07:27:13Z</time>
      </trkpt>
      <trkpt lat="44.04354" lon="6.97083">
        <ele>1343.42</ele>
        <time>2016-07-10T07:29:05Z</time>
      </trkpt>
      <trkpt lat="44.04368" lon="6.97067">
        <ele>1360.29</ele>
        <time>2016-07-10T07:32:52Z</time>
      </trkpt>
      <trkpt lat="44.04385" lon="6.97053">
        <ele>1366.92</ele>
        <time>2016-07-10T07:33:47Z</time>
      </trkpt>
      <trkpt lat="44.04397" lon="6.97035">
        <ele>1375.92</ele>
        <time>2016-07-10T07:34:47Z</time>
      </trkpt>
      <trkpt lat="44.04414" lon="6.97027">
        <ele>1389.29</ele>
        <time>2016-07-10T07:36:09Z</time>
      </trkpt>
      <trkpt lat="44.04423" lon="6.97004">
        <ele>1395.51</ele>
        <time>2016-07-10T07:36:52Z</time>
      </trkpt>
      <trkpt lat="44.04437" lon="6.96987">
        <ele>1399.78</ele>
        <time>2016-07-10T07:38:24Z</time>
      </trkpt>
      <trkpt lat="44.04455" lon="6.96991">
        <ele>1394.05</ele>
        <time>2016-07-10T07:44:32Z</time>
      </trkpt>
      <trkpt lat="44.04495" lon="6.96977">
        <ele>1384.69</ele>
        <time>2016-07-10T07:46:07Z</time>
      </trkpt>
      <trkpt lat="44.04514" lon="6.96982">
        <ele>1403.84</ele>
        <time>2016-07-10T07:46:18Z</time>
      </trkpt>
      <trkpt lat="44.04532" lon="6.96986">
        <ele>1416.91</ele>
        <time>2016-07-10T07:47:16Z</time>
      </trkpt>
      <trkpt lat="44.04549" lon="6.96995">
        <ele>1419.5</ele>
        <time>2016-07-10T07:47:40Z</time>
      </trkpt>
      <trkpt lat="44.04567" lon="6.97">
        <ele>1423.54</ele>
        <time>2016-07-10T07:48:06Z</time>
      </trkpt>
      <trkpt lat="44.04583" lon="6.97012">
        <ele>1434.69</ele>
        <time>2016-07-10T07:52:19Z</time>
      </trkpt>
      <trkpt lat="44.04601" lon="6.97012">
        <ele>1427.99</ele>
        <time>2016-07-10T07:52:42Z</time>
      </trkpt>
      <trkpt lat="44.04617" lon="6.97025">
        <ele>1423.72</ele>
        <time>2016-07-10T07:53:03Z</time>
      </trkpt>
      <trkpt lat="44.04635" lon="6.97027">
        <ele>1422.25</ele>
        <time>2016-07-10T07:53:39Z</time>
      </trkpt>
      <trkpt lat="44.04654" lon="6.97029">
        <ele>1428.05</ele>
        <time>2016-07-10T07:54:11Z</time>
      </trkpt>
      <trkpt lat="44.04672" lon="6.97025">
        <ele>1423.1</ele>
        <time>2016-07-10T07:54:50Z</time>
      </trkpt>
      <trkpt lat="44.04689" lon="6.9701">
        <ele>1433.66</ele>
        <time>2016-07-10T07:55:23Z</time>
      </trkpt>
      <trkpt lat="44.04705" lon="6.96995">
        <ele>1461.43</ele>
        <time>2016-07-10T07:56:19Z</time>
      </trkpt>
      <trkpt lat="44.04721" lon="6.96983">
        <ele>1462.92</ele>
        <time>2016-07-10T07:56:52Z</time>
      </trkpt>
      <trkpt lat="44.04739" lon="6.96982">
        <ele>1471.31</ele>
        <time>2016-07-10T07:57:23Z</time>
      </trkpt>
      <trkpt lat="44.04757" lon="6.96985">
        <ele>1474.13</ele>
        <time>2016-07-10T07:58:54Z</time>
      </trkpt>
      <trkpt lat="44.04776" lon="6.96984">
        <ele>1480.01</ele>
        <time>2016-07-10T07:59:25Z</time>
      </trkpt>
      <trkpt lat="44.04793" lon="6.96977">
        <ele>1483.21</ele>
        <time>2016-07-10T07:59:56Z</time>
      </trkpt>
      <trkpt lat="44.04836" lon="6.96944">
        <ele>1474.16</ele>
        <time>2016-07-10T08:00:59Z</time>
      </trkpt>
      <trkpt lat="44.04853" lon="6.96947">
        <ele>1511.78</ele>
        <time>2016-07-10T08:02:35Z</time>
      </trkpt>
      <trkpt lat="44.04864" lon="6.96926">
        <ele>1508.57</ele>
        <time>2016-07-10T08:03:11Z</time>
      </trkpt>
      <trkpt lat="44.04875" lon="6.96906">
        <ele>1512.54</ele>
        <time>2016-07-10T08:04:12Z</time>
      </trkpt>
      <trkpt lat="44.04887" lon="6.96886">
        <ele>1512.82</ele>
        <time>2016-07-10T08:04:52Z</time>
      </trkpt>
      <trkpt lat="44.04903" lon="6.96873">
        <ele>1526.55</ele>
        <time>2016-07-10T08:05:39Z</time>
      </trkpt>
      <trkpt lat="44.04916" lon="6.96855">
        <ele>1535.28</ele>
        <time>2016-07-10T08:06:39Z</time>
      </trkpt>
      <trkpt lat="44.04928" lon="6.96836">
        <ele>1536.04</ele>
        <time>2016-07-10T08:07:08Z</time>
      </trkpt>
      <trkpt lat="44.0494" lon="6.96816">
        <ele>1544.55</ele>
        <time>2016-07-10T08:07:45Z</time>
      </trkpt>
      <trkpt lat="44.04953" lon="6.96798">
        <ele>1547.63</ele>
        <time>2016-07-10T08:08:16Z</time>
      </trkpt>
      <trkpt lat="44.04967" lon="6.96782">
        <ele>1546.89</ele>
        <time>2016-07-10T08:08:45Z</time>
      </trkpt>
      <trkpt lat="44.04979" lon="6.96762">
        <ele>1557.44</ele>
        <time>2016-07-10T08:09:32Z</time>
      </trkpt>
      <trkpt lat="44.04993" lon="6.96745">
        <ele>1560.33</ele>
        <time>2016-07-10T08:10:16Z</time>
      </trkpt>
      <trkpt lat="44.05007" lon="6.96728">
        <ele>1563.54</ele>
        <time>2016-07-10T08:10:47Z</time>
      </trkpt>
      <trkpt lat="44.05004" lon="6.96703">
        <ele>1579.8</ele>
        <time>2016-07-10T08:15:44Z</time>
      </trkpt>
      <trkpt lat="44.04998" lon="6.96679">
        <ele>1586.04</ele>
        <time>2016-07-10T08:16:47Z</time>
      </trkpt>
      <trkpt lat="44.05014" lon="6.96667">
        <ele>1595.21</ele>
        <time>2016-07-10T08:17:42Z</time>
      </trkpt>
      <trkpt lat="44.05" lon="6.96652">
        <ele>1599.55</ele>
        <time>2016-07-10T08:19:40Z</time>
      </trkpt>
      <trkpt lat="44.04981" lon="6.96653">
        <ele>1603.55</ele>
        <time>2016-07-10T08:20:06Z</time>
      </trkpt>
      <trkpt lat="44.04963" lon="6.96654">
        <ele>1602.07</ele>
        <time>2016-07-10T08:21:02Z</time>
      </trkpt>
      <trkpt lat="44.04972" lon="6.96632">
        <ele>1598.55</ele>
        <time>2016-07-10T08:23:52Z</time>
      </trkpt>
      <trkpt lat="44.04988" lon="6.9662">
        <ele>1606.64</ele>
        <time>2016-07-10T08:24:54Z</time>
      </trkpt>
      <trkpt lat="44.05006" lon="6.96616">
        <ele>1610.8</ele>
        <time>2016-07-10T08:25:16Z</time>
      </trkpt>
      <trkpt lat="44.04997" lon="6.96594">
        <ele>1616.3</ele>
        <time>2016-07-10T08:25:52Z</time>
      </trkpt>
      <trkpt lat="44.04998" lon="6.96568">
        <ele>1610.42</ele>
        <time>2016-07-10T08:26:44Z</time>
      </trkpt>
      <trkpt lat="44.04996" lon="6.96541">
        <ele>1607.93</ele>
        <time>2016-07-10T08:27:07Z</time>
      </trkpt>
      <trkpt lat="44.04992" lon="6.96515">
        <ele>1604.96</ele>
        <time>2016-07-10T08:27:27Z</time>
      </trkpt>
      <trkpt lat="44.04987" lon="6.9649">
        <ele>1604.88</ele>
        <time>2016-07-10T08:27:47Z</time>
      </trkpt>
      <trkpt lat="44.04988" lon="6.96465">
        <ele>1599.93</ele>
        <time>2016-07-10T08:28:10Z</time>
      </trkpt>
      <trkpt lat="44.04978" lon="6.96442">
        <ele>1602.18</ele>
        <time>2016-07-10T08:28:32Z</time>
      </trkpt>
      <trkpt lat="44.04967" lon="6.9642">
        <ele>1601.44</ele>
        <time>2016-07-10T08:28:51Z</time>
      </trkpt>
      <trkpt lat="44.04962" lon="6.96395">
        <ele>1596.31</ele>
        <time>2016-07-10T08:29:12Z</time>
      </trkpt>
      <trkpt lat="44.04954" lon="6.9637">
        <ele>1597.41</ele>
        <time>2016-07-10T08:29:40Z</time>
      </trkpt>
      <trkpt lat="44.04944" lon="6.96348">
        <ele>1595.05</ele>
        <time>2016-07-10T08:31:19Z</time>
      </trkpt>
      <trkpt lat="44.0494" lon="6.96323">
        <ele>1591.83</ele>
        <time>2016-07-10T08:31:31Z</time>
      </trkpt>
      <trkpt lat="44.04937" lon="6.96297">
        <ele>1591.58</ele>
        <time>2016-07-10T08:31:48Z</time>
      </trkpt>
      <trkpt lat="44.04941" lon="6.96273">
        <ele>1580.58</ele>
        <time>2016-07-10T08:32:05Z</time>
      </trkpt>
      <trkpt lat="44.04935" lon="6.96248">
        <ele>1581.04</ele>
        <time>2016-07-10T08:32:22Z</time>
      </trkpt>
      <trkpt lat="44.04935" lon="6.96223">
        <ele>1578.99</ele>
        <time>2016-07-10T08:32:37Z</time>
      </trkpt>
      <trkpt lat="44.04932" lon="6.96202">
        <ele>1579.55</ele>
        <time>2016-07-10T08:34:04Z</time>
      </trkpt>
      <trkpt lat="44.04921" lon="6.9618">
        <ele>1578.97</ele>
        <time>2016-07-10T08:38:13Z</time>
      </trkpt>
      <trkpt lat="44.04909" lon="6.96161">
        <ele>1580.79</ele>
        <time>2016-07-10T08:38:25Z</time>
      </trkpt>
      <trkpt lat="44.04897" lon="6.9614">
        <ele>1580.99</ele>
        <time>2016-07-10T08:38:39Z</time>
      </trkpt>
      <trkpt lat="44.04893" lon="6.96115">
        <ele>1580.78</ele>
        <time>2016-07-10T08:38:54Z</time>
      </trkpt>
      <trkpt lat="44.04886" lon="6.96092">
        <ele>1576.96</ele>
        <time>2016-07-10T08:39:08Z</time>
      </trkpt>
      <trkpt lat="44.04875" lon="6.9607">
        <ele>1575.03</ele>
        <time>2016-07-10T08:39:24Z</time>
      </trkpt>
      <trkpt lat="44.04866" lon="6.96048">
        <ele>1572.44</ele>
        <time>2016-07-10T08:39:39Z</time>
      </trkpt>
      <trkpt lat="44.04849" lon="6.96036">
        <ele>1575.71</ele>
        <time>2016-07-10T08:39:57Z</time>
      </trkpt>
      <trkpt lat="44.0483" lon="6.96037">
        <ele>1571.61</ele>
        <time>2016-07-10T08:40:12Z</time>
      </trkpt>
      <trkpt lat="44.04812" lon="6.96032">
        <ele>1566.97</ele>
        <time>2016-07-10T08:40:30Z</time>
      </trkpt>
      <trkpt lat="44.04807" lon="6.96007">
        <ele>1567.14</ele>
        <time>2016-07-10T08:40:46Z</time>
      </trkpt>
      <trkpt lat="44.048" lon="6.95983">
        <ele>1566.35</ele>
        <time>2016-07-10T08:41:02Z</time>
      </trkpt>
      <trkpt lat="44.04804" lon="6.95958">
        <ele>1564.86</ele>
        <time>2016-07-10T08:41:17Z</time>
      </trkpt>
      <trkpt lat="44.04788" lon="6.95944">
        <ele>1565.08</ele>
        <time>2016-07-10T08:41:33Z</time>
      </trkpt>
      <trkpt lat="44.0477" lon="6.95936">
        <ele>1566.01</ele>
        <time>2016-07-10T08:41:47Z</time>
      </trkpt>
      <trkpt lat="44.04753" lon="6.95928">
        <ele>1572.55</ele>
        <time>2016-07-10T08:42:04Z</time>
      </trkpt>
      <trkpt lat="44.04739" lon="6.95912">
        <ele>1568.55</ele>
        <time>2016-07-10T08:42:19Z</time>
      </trkpt>
      <trkpt lat="44.04729" lon="6.95889">
        <ele>1567.56</ele>
        <time>2016-07-10T08:42:36Z</time>
      </trkpt>
      <trkpt lat="44.04725" lon="6.95864">
        <ele>1567.78</ele>
        <time>2016-07-10T08:42:52Z</time>
      </trkpt>
      <trkpt lat="44.04728" lon="6.95837">
        <ele>1563.82</ele>
        <time>2016-07-10T08:43:08Z</time>
      </trkpt>
      <trkpt lat="44.04731" lon="6.95812">
        <ele>1543.95</ele>
        <time>2016-07-10T08:43:23Z</time>
      </trkpt>
      <trkpt lat="44.04732" lon="6.95787">
        <ele>1514.18</ele>
        <time>2016-07-10T08:43:37Z</time>
      </trkpt>
      <trkpt lat="44.04733" lon="6.95762">
        <ele>1494.37</ele>
        <time>2016-07-10T08:43:54Z</time>
      </trkpt>
      <trkpt lat="44.04736" lon="6.95735">
        <ele>1478.92</ele>
        <time>2016-07-10T08:44:10Z</time>
      </trkpt>
      <trkpt lat="44.04735" lon="6.9571">
        <ele>1533.4</ele>
        <time>2016-07-10T08:44:26Z</time>
      </trkpt>
      <trkpt lat="44.04728" lon="6.95685">
        <ele>1555.18</ele>
        <time>2016-07-10T08:44:39Z</time>
      </trkpt>
      <trkpt lat="44.04728" lon="6.95659">
        <ele>1556.05</ele>
        <time>2016-07-10T08:44:55Z</time>
      </trkpt>
      <trkpt lat="44.04722" lon="6.95635">
        <ele>1558.51</ele>
        <time>2016-07-10T08:45:14Z</time>
      </trkpt>
      <trkpt lat="44.0471" lon="6.95615">
        <ele>1559.93</ele>
        <time>2016-07-10T08:45:32Z</time>
      </trkpt>
      <trkpt lat="44.047" lon="6.95593">
        <ele>1559.45</ele>
        <time>2016-07-10T08:45:47Z</time>
      </trkpt>
      <trkpt lat="44.04685" lon="6.95578">
        <ele>1564.34</ele>
        <time>2016-07-10T08:46:04Z</time>
      </trkpt>
      <trkpt lat="44.04666" lon="6.95573">
        <ele>1565.64</ele>
        <time>2016-07-10T08:46:21Z</time>
      </trkpt>
      <trkpt lat="44.04652" lon="6.95557">
        <ele>1566.54</ele>
        <time>2016-07-10T08:46:42Z</time>
      </trkpt>
      <trkpt lat="44.04645" lon="6.95534">
        <ele>1569.85</ele>
        <time>2016-07-10T08:47:02Z</time>
      </trkpt>
      <trkpt lat="44.04643" lon="6.95507">
        <ele>1577.53</ele>
        <time>2016-07-10T08:47:24Z</time>
      </trkpt>
      <trkpt lat="44.04643" lon="6.95482">
        <ele>1580.95</ele>
        <time>2016-07-10T08:47:42Z</time>
      </trkpt>
      <trkpt lat="44.04637" lon="6.95458">
        <ele>1582.29</ele>
        <time>2016-07-10T08:48:01Z</time>
      </trkpt>
      <trkpt lat="44.0462" lon="6.95449">
        <ele>1580.36</ele>
        <time>2016-07-10T08:48:22Z</time>
      </trkpt>
      <trkpt lat="44.04613" lon="6.95425">
        <ele>1581.53</ele>
        <time>2016-07-10T08:48:41Z</time>
      </trkpt>
      <trkpt lat="44.04608" lon="6.95401">
        <ele>1585.97</ele>
        <time>2016-07-10T08:49:00Z</time>
      </trkpt>
      <trkpt lat="44.04613" lon="6.95377">
        <ele>1589.78</ele>
        <time>2016-07-10T08:49:17Z</time>
      </trkpt>
      <trkpt lat="44.04619" lon="6.95353">
        <ele>1591.4</ele>
        <time>2016-07-10T08:49:33Z</time>
      </trkpt>
      <trkpt lat="44.04615" lon="6.95327">
        <ele>1590.36</ele>
        <time>2016-07-10T08:49:51Z</time>
      </trkpt>
      <trkpt lat="44.04603" lon="6.95307">
        <ele>1588.16</ele>
        <time>2016-07-10T08:50:08Z</time>
      </trkpt>
      <trkpt lat="44.04586" lon="6.95294">
        <ele>1587.88</ele>
        <time>2016-07-10T08:50:24Z</time>
      </trkpt>
      <trkpt lat="44.04568" lon="6.95293">
        <ele>1585.69</ele>
        <time>2016-07-10T08:50:39Z</time>
      </trkpt>
      <trkpt lat="44.04551" lon="6.95307">
        <ele>1592.42</ele>
        <time>2016-07-10T08:50:55Z</time>
      </trkpt>
      <trkpt lat="44.04533" lon="6.95313">
        <ele>1586.77</ele>
        <time>2016-07-10T08:51:12Z</time>
      </trkpt>
      <trkpt lat="44.04517" lon="6.95298">
        <ele>1589.74</ele>
        <time>2016-07-10T08:51:30Z</time>
      </trkpt>
      <trkpt lat="44.0451" lon="6.95274">
        <ele>1592.11</ele>
        <time>2016-07-10T08:51:45Z</time>
      </trkpt>
      <trkpt lat="44.04511" lon="6.95246">
        <ele>1594.48</ele>
        <time>2016-07-10T08:52:03Z</time>
      </trkpt>
      <trkpt lat="44.04514" lon="6.95222">
        <ele>1595.53</ele>
        <time>2016-07-10T08:52:17Z</time>
      </trkpt>
      <trkpt lat="44.04511" lon="6.95195">
        <ele>1594.86</ele>
        <time>2016-07-10T08:52:36Z</time>
      </trkpt>
      <trkpt lat="44.04504" lon="6.95172">
        <ele>1597.27</ele>
        <time>2016-07-10T08:52:52Z</time>
      </trkpt>
      <trkpt lat="44.04493" lon="6.95149">
        <ele>1597.8</ele>
        <time>2016-07-10T08:53:10Z</time>
      </trkpt>
      <trkpt lat="44.0448" lon="6.95131">
        <ele>1598.29</ele>
        <time>2016-07-10T08:53:26Z</time>
      </trkpt>
      <trkpt lat="44.04462" lon="6.95089">
        <ele>1597.16</ele>
        <time>2016-07-10T08:53:58Z</time>
      </trkpt>
      <trkpt lat="44.04458" lon="6.95064">
        <ele>1595.12</ele>
        <time>2016-07-10T08:54:14Z</time>
      </trkpt>
      <trkpt lat="44.04449" lon="6.95041">
        <ele>1593.05</ele>
        <time>2016-07-10T08:54:29Z</time>
      </trkpt>
      <trkpt lat="44.04437" lon="6.95021">
        <ele>1592.74</ele>
        <time>2016-07-10T08:54:42Z</time>
      </trkpt>
      <trkpt lat="44.04423" lon="6.95003">
        <ele>1594.51</ele>
        <time>2016-07-10T08:54:56Z</time>
      </trkpt>
      <trkpt lat="44.0441" lon="6.94985">
        <ele>1594.53</ele>
        <time>2016-07-10T08:55:10Z</time>
      </trkpt>
      <trkpt lat="44.04398" lon="6.94966">
        <ele>1594.29</ele>
        <time>2016-07-10T08:55:24Z</time>
      </trkpt>
      <trkpt lat="44.0439" lon="6.94944">
        <ele>1593.35</ele>
        <time>2016-07-10T08:55:38Z</time>
      </trkpt>
      <trkpt lat="44.04381" lon="6.94922">
        <ele>1595.81</ele>
        <time>2016-07-10T08:55:52Z</time>
      </trkpt>
      <trkpt lat="44.04365" lon="6.94907">
        <ele>1589.27</ele>
        <time>2016-07-10T08:56:17Z</time>
      </trkpt>
      <trkpt lat="44.04346" lon="6.9491">
        <ele>1598.3</ele>
        <time>2016-07-10T08:56:41Z</time>
      </trkpt>
      <trkpt lat="44.0433" lon="6.94897">
        <ele>1602.55</ele>
        <time>2016-07-10T08:56:58Z</time>
      </trkpt>
      <trkpt lat="44.04316" lon="6.94879">
        <ele>1604.18</ele>
        <time>2016-07-10T08:57:14Z</time>
      </trkpt>
      <trkpt lat="44.04303" lon="6.94849">
        <ele>1603.21</ele>
        <time>2016-07-10T08:57:38Z</time>
      </trkpt>
      <trkpt lat="44.04288" lon="6.94835">
        <ele>1607.84</ele>
        <time>2016-07-10T08:57:54Z</time>
      </trkpt>
      <trkpt lat="44.04279" lon="6.94811">
        <ele>1606.8</ele>
        <time>2016-07-10T08:58:23Z</time>
      </trkpt>
      <trkpt lat="44.0427" lon="6.9479">
        <ele>1602.77</ele>
        <time>2016-07-10T08:58:46Z</time>
      </trkpt>
      <trkpt lat="44.04259" lon="6.94769">
        <ele>1598.71</ele>
        <time>2016-07-10T08:59:08Z</time>
      </trkpt>
      <trkpt lat="44.04243" lon="6.94759">
        <ele>1596.06</ele>
        <time>2016-07-10T08:59:26Z</time>
      </trkpt>
      <trkpt lat="44.04227" lon="6.94745">
        <ele>1593.85</ele>
        <time>2016-07-10T08:59:45Z</time>
      </trkpt>
      <trkpt lat="44.04211" lon="6.94733">
        <ele>1594.36</ele>
        <time>2016-07-10T08:59:59Z</time>
      </trkpt>
      <trkpt lat="44.04193" lon="6.94728">
        <ele>1589.58</ele>
        <time>2016-07-10T09:00:23Z</time>
      </trkpt>
      <trkpt lat="44.04174" lon="6.94727">
        <ele>1583.8</ele>
        <time>2016-07-10T09:00:53Z</time>
      </trkpt>
      <trkpt lat="44.04156" lon="6.94734">
        <ele>1584.05</ele>
        <time>2016-07-10T09:01:16Z</time>
      </trkpt>
      <trkpt lat="44.04137" lon="6.94728">
        <ele>1583.71</ele>
        <time>2016-07-10T09:02:00Z</time>
      </trkpt>
      <trkpt lat="44.0412" lon="6.94721">
        <ele>1570.05</ele>
        <time>2016-07-10T09:02:36Z</time>
      </trkpt>
      <trkpt lat="44.04102" lon="6.94723">
        <ele>1572.02</ele>
        <time>2016-07-10T09:03:14Z</time>
      </trkpt>
      <trkpt lat="44.04104" lon="6.94698">
        <ele>1548.68</ele>
        <time>2016-07-10T09:04:32Z</time>
      </trkpt>
      <trkpt lat="44.0411" lon="6.94673">
        <ele>1555.25</ele>
        <time>2016-07-10T09:05:26Z</time>
      </trkpt>
      <trkpt lat="44.04091" lon="6.94673">
        <ele>1555.49</ele>
        <time>2016-07-10T09:06:33Z</time>
      </trkpt>
      <trkpt lat="44.04075" lon="6.94685">
        <ele>1552.97</ele>
        <time>2016-07-10T09:07:15Z</time>
      </trkpt>
      <trkpt lat="44.04058" lon="6.94679">
        <ele>1531.29</ele>
        <time>2016-07-10T09:08:18Z</time>
      </trkpt>
      <trkpt lat="44.04052" lon="6.94654">
        <ele>1527.48</ele>
        <time>2016-07-10T09:09:02Z</time>
      </trkpt>
      <trkpt lat="44.04038" lon="6.94638">
        <ele>1510.74</ele>
        <time>2016-07-10T09:09:52Z</time>
      </trkpt>
      <trkpt lat="44.04022" lon="6.94649">
        <ele>1515.3</ele>
        <time>2016-07-10T09:43:42Z</time>
      </trkpt>
      <trkpt lat="44.04004" lon="6.94653">
        <ele>1506.52</ele>
        <time>2016-07-10T09:45:14Z</time>
      </trkpt>
      <trkpt lat="44.03985" lon="6.94661">
        <ele>1508.42</ele>
        <time>2016-07-10T09:47:01Z</time>
      </trkpt>
      <trkpt lat="44.03967" lon="6.94673">
        <ele>1509.74</ele>
        <time>2016-07-10T09:47:59Z</time>
      </trkpt>
      <trkpt lat="44.03957" lon="6.94694">
        <ele>1511.42</ele>
        <time>2016-07-10T09:51:50Z</time>
      </trkpt>
      <trkpt lat="44.0395" lon="6.94718">
        <ele>1512.93</ele>
        <time>2016-07-10T09:53:39Z</time>
      </trkpt>
      <trkpt lat="44.03956" lon="6.94742">
        <ele>1503.05</ele>
        <time>2016-07-10T09:57:57Z</time>
      </trkpt>
      <trkpt lat="44.03949" lon="6.94767">
        <ele>1493.4</ele>
        <time>2016-07-10T09:58:33Z</time>
      </trkpt>
      <trkpt lat="44.03946" lon="6.94793">
        <ele>1493.93</ele>
        <time>2016-07-10T09:59:03Z</time>
      </trkpt>
      <trkpt lat="44.0393" lon="6.94805">
        <ele>1492.72</ele>
        <time>2016-07-10T09:59:37Z</time>
      </trkpt>
      <trkpt lat="44.03925" lon="6.94829">
        <ele>1494.57</ele>
        <time>2016-07-10T10:00:34Z</time>
      </trkpt>
      <trkpt lat="44.03918" lon="6.94853">
        <ele>1491.59</ele>
        <time>2016-07-10T10:01:05Z</time>
      </trkpt>
      <trkpt lat="44.0391" lon="6.94875">
        <ele>1486.05</ele>
        <time>2016-07-10T10:06:43Z</time>
      </trkpt>
      <trkpt lat="44.03908" lon="6.94902">
        <ele>1490.86</ele>
        <time>2016-07-10T10:14:05Z</time>
      </trkpt>
      <trkpt lat="44.03923" lon="6.94919">
        <ele>1472.3</ele>
        <time>2016-07-10T10:15:03Z</time>
      </trkpt>
      <trkpt lat="44.03908" lon="6.94939">
        <ele>1477.03</ele>
        <time>2016-07-10T10:15:07Z</time>
      </trkpt>
      <trkpt lat="44.03927" lon="6.94926">
        <ele>1475.21</ele>
        <time>2016-07-10T10:15:13Z</time>
      </trkpt>
      <trkpt lat="44.03917" lon="6.94949">
        <ele>1479.36</ele>
        <time>2016-07-10T10:16:30Z</time>
      </trkpt>
      <trkpt lat="44.03898" lon="6.94953">
        <ele>1473.06</ele>
        <time>2016-07-10T10:17:02Z</time>
      </trkpt>
      <trkpt lat="44.03881" lon="6.94969">
        <ele>1464.3</ele>
        <time>2016-07-10T10:22:52Z</time>
      </trkpt>
      <trkpt lat="44.03867" lon="6.94986">
        <ele>1461.48</ele>
        <time>2016-07-10T10:28:35Z</time>
      </trkpt>
      <trkpt lat="44.03853" lon="6.95004">
        <ele>1453.98</ele>
        <time>2016-07-10T10:29:05Z</time>
      </trkpt>
      <trkpt lat="44.03854" lon="6.9503">
        <ele>1453.35</ele>
        <time>2016-07-10T10:31:22Z</time>
      </trkpt>
      <trkpt lat="44.03854" lon="6.95055">
        <ele>1448.83</ele>
        <time>2016-07-10T10:32:28Z</time>
      </trkpt>
      <trkpt lat="44.03858" lon="6.9508">
        <ele>1454.79</ele>
        <time>2016-07-10T10:34:29Z</time>
      </trkpt>
      <trkpt lat="44.03869" lon="6.951">
        <ele>1454.29</ele>
        <time>2016-07-10T10:39:17Z</time>
      </trkpt>
      <trkpt lat="44.03872" lon="6.95125">
        <ele>1441.56</ele>
        <time>2016-07-10T10:43:02Z</time>
      </trkpt>
      <trkpt lat="44.03889" lon="6.95108">
        <ele>1435.94</ele>
        <time>2016-07-10T10:43:11Z</time>
      </trkpt>
      <trkpt lat="44.03905" lon="6.95119">
        <ele>1421.54</ele>
        <time>2016-07-10T10:46:06Z</time>
      </trkpt>
      <trkpt lat="44.03924" lon="6.95127">
        <ele>1417.8</ele>
        <time>2016-07-10T10:47:10Z</time>
      </trkpt>
      <trkpt lat="44.03942" lon="6.95135">
        <ele>1427.38</ele>
        <time>2016-07-10T10:48:11Z</time>
      </trkpt>
      <trkpt lat="44.03948" lon="6.95159">
        <ele>1429.21</ele>
        <time>2016-07-10T10:48:31Z</time>
      </trkpt>
      <trkpt lat="44.03962" lon="6.95178">
        <ele>1433.53</ele>
        <time>2016-07-10T10:49:30Z</time>
      </trkpt>
      <trkpt lat="44.03974" lon="6.95203">
        <ele>1429.05</ele>
        <time>2016-07-10T10:51:30Z</time>
      </trkpt>
      <trkpt lat="44.03956" lon="6.95184">
        <ele>1435.29</ele>
        <time>2016-07-10T10:51:43Z</time>
      </trkpt>
      <trkpt lat="44.03956" lon="6.9521">
        <ele>1440.56</ele>
        <time>2016-07-10T10:52:16Z</time>
      </trkpt>
      <trkpt lat="44.03949" lon="6.95233">
        <ele>1421.78</ele>
        <time>2016-07-10T10:52:42Z</time>
      </trkpt>
      <trkpt lat="44.03954" lon="6.95258">
        <ele>1424.92</ele>
        <time>2016-07-10T10:55:35Z</time>
      </trkpt>
      <trkpt lat="44.03935" lon="6.95265">
        <ele>1410.41</ele>
        <time>2016-07-10T10:59:34Z</time>
      </trkpt>
      <trkpt lat="44.03953" lon="6.95274">
        <ele>1422.5</ele>
        <time>2016-07-10T11:01:03Z</time>
      </trkpt>
      <trkpt lat="44.0394" lon="6.95297">
        <ele>1420.05</ele>
        <time>2016-07-10T11:03:05Z</time>
      </trkpt>
      <trkpt lat="44.03935" lon="6.95322">
        <ele>1396.99</ele>
        <time>2016-07-10T11:03:29Z</time>
      </trkpt>
      <trkpt lat="44.03928" lon="6.95345">
        <ele>1393.61</ele>
        <time>2016-07-10T11:04:35Z</time>
      </trkpt>
      <trkpt lat="44.03935" lon="6.95369">
        <ele>1401.05</ele>
        <time>2016-07-10T11:06:04Z</time>
      </trkpt>
      <trkpt lat="44.03931" lon="6.95393">
        <ele>1393.77</ele>
        <time>2016-07-10T11:06:31Z</time>
      </trkpt>
      <trkpt lat="44.03922" lon="6.95415">
        <ele>1383.45</ele>
        <time>2016-07-10T11:07:24Z</time>
      </trkpt>
      <trkpt lat="44.03916" lon="6.9544">
        <ele>1383.55</ele>
        <time>2016-07-10T11:09:41Z</time>
      </trkpt>
      <trkpt lat="44.03921" lon="6.95464">
        <ele>1377.55</ele>
        <time>2016-07-10T11:11:22Z</time>
      </trkpt>
      <trkpt lat="44.03915" lon="6.95488">
        <ele>1370.37</ele>
        <time>2016-07-10T11:13:19Z</time>
      </trkpt>
      <trkpt lat="44.03903" lon="6.95508">
        <ele>1367.86</ele>
        <time>2016-07-10T11:16:17Z</time>
      </trkpt>
      <trkpt lat="44.03899" lon="6.95532">
        <ele>1353.08</ele>
        <time>2016-07-10T11:18:52Z</time>
      </trkpt>
      <trkpt lat="44.03895" lon="6.95558">
        <ele>1356.96</ele>
        <time>2016-07-10T11:19:54Z</time>
      </trkpt>
      <trkpt lat="44.03894" lon="6.95583">
        <ele>1356.03</ele>
        <time>2016-07-10T11:20:48Z</time>
      </trkpt>
      <trkpt lat="44.03891" lon="6.95609">
        <ele>1354.99</ele>
        <time>2016-07-10T11:26:54Z</time>
      </trkpt>
      <trkpt lat="44.03899" lon="6.95632">
        <ele>1356.53</ele>
        <time>2016-07-10T11:30:59Z</time>
      </trkpt>
      <trkpt lat="44.03898" lon="6.95657">
        <ele>1360.15</ele>
        <time>2016-07-10T11:31:25Z</time>
      </trkpt>
      <trkpt lat="44.03906" lon="6.9568">
        <ele>1353.39</ele>
        <time>2016-07-10T11:32:55Z</time>
      </trkpt>
      <trkpt lat="44.03908" lon="6.95706">
        <ele>1337.45</ele>
        <time>2016-07-10T11:34:30Z</time>
      </trkpt>
      <trkpt lat="44.0389" lon="6.95714">
        <ele>1343.75</ele>
        <time>2016-07-10T11:34:52Z</time>
      </trkpt>
      <trkpt lat="44.03873" lon="6.95724">
        <ele>1340.11</ele>
        <time>2016-07-10T11:35:23Z</time>
      </trkpt>
      <trkpt lat="44.03864" lon="6.95745">
        <ele>1343.97</ele>
        <time>2016-07-10T11:35:41Z</time>
      </trkpt>
      <trkpt lat="44.03878" lon="6.95762">
        <ele>1331.55</ele>
        <time>2016-07-10T11:37:39Z</time>
      </trkpt>
      <trkpt lat="44.03881" lon="6.95787">
        <ele>1336.48</ele>
        <time>2016-07-10T11:39:37Z</time>
      </trkpt>
      <trkpt lat="44.03901" lon="6.95796">
        <ele>1347.94</ele>
        <time>2016-07-10T11:42:00Z</time>
      </trkpt>
      <trkpt lat="44.03887" lon="6.95815">
        <ele>1339.84</ele>
        <time>2016-07-10T11:42:32Z</time>
      </trkpt>
      <trkpt lat="44.03888" lon="6.9584">
        <ele>1342.55</ele>
        <time>2016-07-10T11:43:54Z</time>
      </trkpt>
      <trkpt lat="44.03892" lon="6.95867">
        <ele>1344.3</ele>
        <time>2016-07-10T11:45:28Z</time>
      </trkpt>
      <trkpt lat="44.0391" lon="6.95867">
        <ele>1342.81</ele>
        <time>2016-07-10T11:48:10Z</time>
      </trkpt>
      <trkpt lat="44.03908" lon="6.95893">
        <ele>1350.64</ele>
        <time>2016-07-10T11:49:26Z</time>
      </trkpt>
      <trkpt lat="44.0392" lon="6.95912">
        <ele>1347.87</ele>
        <time>2016-07-10T11:50:20Z</time>
      </trkpt>
      <trkpt lat="44.0393" lon="6.95933">
        <ele>1316.2</ele>
        <time>2016-07-10T11:59:25Z</time>
      </trkpt>
      <trkpt lat="44.03919" lon="6.95957">
        <ele>1352.58</ele>
        <time>2016-07-10T12:04:39Z</time>
      </trkpt>
      <trkpt lat="44.03921" lon="6.95983">
        <ele>1325.84</ele>
        <time>2016-07-10T12:06:36Z</time>
      </trkpt>
      <trkpt lat="44.03923" lon="6.96008">
        <ele>1330.19</ele>
        <time>2016-07-10T12:07:25Z</time>
      </trkpt>
      <trkpt lat="44.03927" lon="6.96033">
        <ele>1352.27</ele>
        <time>2016-07-10T12:08:34Z</time>
      </trkpt>
      <trkpt lat="44.03921" lon="6.96057">
        <ele>1300.13</ele>
        <time>2016-07-10T12:09:34Z</time>
      </trkpt>
      <trkpt lat="44.03925" lon="6.96081">
        <ele>1299.36</ele>
        <time>2016-07-10T12:10:41Z</time>
      </trkpt>
      <trkpt lat="44.03925" lon="6.96107">
        <ele>1280.66</ele>
        <time>2016-07-10T12:11:15Z</time>
      </trkpt>
      <trkpt lat="44.03949" lon="6.96094">
        <ele>1276.68</ele>
        <time>2016-07-10T12:11:33Z</time>
      </trkpt>
      <trkpt lat="44.03938" lon="6.96115">
        <ele>1276.27</ele>
        <time>2016-07-10T12:11:46Z</time>
      </trkpt>
      <trkpt lat="44.03939" lon="6.96141">
        <ele>1280.91</ele>
        <time>2016-07-10T12:12:05Z</time>
      </trkpt>
      <trkpt lat="44.03933" lon="6.96165">
        <ele>1288.45</ele>
        <time>2016-07-10T12:12:24Z</time>
      </trkpt>
      <trkpt lat="44.03954" lon="6.96161">
        <ele>1294.59</ele>
        <time>2016-07-10T12:12:36Z</time>
      </trkpt>
      <trkpt lat="44.03954" lon="6.96187">
        <ele>1274.17</ele>
        <time>2016-07-10T12:14:44Z</time>
      </trkpt>
      <trkpt lat="44.03972" lon="6.96191">
        <ele>1276.05</ele>
        <time>2016-07-10T12:19:31Z</time>
      </trkpt>
      <trkpt lat="44.03986" lon="6.96176">
        <ele>1272.92</ele>
        <time>2016-07-10T12:19:33Z</time>
      </trkpt>
      <trkpt lat="44.0396" lon="6.96192">
        <ele>1269.87</ele>
        <time>2016-07-10T12:19:40Z</time>
      </trkpt>
      <trkpt lat="44.03951" lon="6.96214">
        <ele>1253.14</ele>
        <time>2016-07-10T12:27:33Z</time>
      </trkpt>
      <trkpt lat="44.03939" lon="6.96235">
        <ele>1255.8</ele>
        <time>2016-07-10T12:31:12Z</time>
      </trkpt>
      <trkpt lat="44.03947" lon="6.96261">
        <ele>1261.92</ele>
        <time>2016-07-10T12:31:46Z</time>
      </trkpt>
      <trkpt lat="44.03928" lon="6.96265">
        <ele>1265.14</ele>
        <time>2016-07-10T12:33:51Z</time>
      </trkpt>
      <trkpt lat="44.0391" lon="6.9627">
        <ele>1249.73</ele>
        <time>2016-07-10T12:34:45Z</time>
      </trkpt>
      <trkpt lat="44.03924" lon="6.96287">
        <ele>1279.8</ele>
        <time>2016-07-10T12:46:55Z</time>
      </trkpt>
      <trkpt lat="44.03922" lon="6.96314">
        <ele>1295.25</ele>
        <time>2016-07-10T12:48:23Z</time>
      </trkpt>
      <trkpt lat="44.03921" lon="6.96339">
        <ele>1236.13</ele>
        <time>2016-07-10T12:58:02Z</time>
      </trkpt>
      <trkpt lat="44.03923" lon="6.96366">
        <ele>1235.91</ele>
        <time>2016-07-10T13:11:56Z</time>
      </trkpt>
      <trkpt lat="44.03908" lon="6.96345">
        <ele>1235.64</ele>
        <time>2016-07-10T13:11:58Z</time>
      </trkpt>
      <trkpt lat="44.03925" lon="6.96358">
        <ele>1235.31</ele>
        <time>2016-07-10T13:21:06Z</time>
      </trkpt>
      <trkpt lat="44.03941" lon="6.96372">
        <ele>1243.58</ele>
        <time>2016-07-10T13:21:50Z</time>
      </trkpt>
      <trkpt lat="44.03955" lon="6.96389">
        <ele>1217.56</ele>
        <time>2016-07-10T13:22:46Z</time>
      </trkpt>
      <trkpt lat="44.03964" lon="6.96412">
        <ele>1208.03</ele>
        <time>2016-07-10T13:23:41Z</time>
      </trkpt>
      <trkpt lat="44.03977" lon="6.96433">
        <ele>1208.69</ele>
        <time>2016-07-10T13:24:45Z</time>
      </trkpt>
      <trkpt lat="44.03983" lon="6.96458">
        <ele>1200.41</ele>
        <time>2016-07-10T13:25:19Z</time>
      </trkpt>
      <trkpt lat="44.03972" lon="6.9648">
        <ele>1200.85</ele>
        <time>2016-07-10T13:25:43Z</time>
      </trkpt>
      <trkpt lat="44.03962" lon="6.96501">
        <ele>1196.21</ele>
        <time>2016-07-10T13:26:03Z</time>
      </trkpt>
      <trkpt lat="44.03957" lon="6.96525">
        <ele>1207.44</ele>
        <time>2016-07-10T13:28:30Z</time>
      </trkpt>
      <trkpt lat="44.03968" lon="6.96547">
        <ele>1208.74</ele>
        <time>2016-07-10T13:39:04Z</time>
      </trkpt>
      <trkpt lat="44.03981" lon="6.96564">
        <ele>1218.17</ele>
        <time>2016-07-10T13:42:41Z</time>
      </trkpt>
      <trkpt lat="44.03998" lon="6.96577">
        <ele>1208.59</ele>
        <time>2016-07-10T13:42:58Z</time>
      </trkpt>
      <trkpt lat="44.04015" lon="6.96585">
        <ele>1210.63</ele>
        <time>2016-07-10T13:47:03Z</time>
      </trkpt>
      <trkpt lat="44.04039" lon="6.96595">
        <ele>1200.94</ele>
        <time>2016-07-10T13:47:10Z</time>
      </trkpt>
      <trkpt lat="44.04058" lon="6.96585">
        <ele>1201.97</ele>
        <time>2016-07-10T13:47:13Z</time>
      </trkpt>
      <trkpt lat="44.04044" lon="6.96603">
        <ele>1200.95</ele>
        <time>2016-07-10T13:47:43Z</time>
      </trkpt>
      <trkpt lat="44.04026" lon="6.96603">
        <ele>1195.92</ele>
        <time>2016-07-10T13:51:00Z</time>
      </trkpt>
      <trkpt lat="44.04007" lon="6.9661">
        <ele>1201.05</ele>
        <time>2016-07-10T13:52:06Z</time>
      </trkpt>
      <trkpt lat="44.03988" lon="6.96619">
        <ele>1198.21</ele>
        <time>2016-07-10T13:53:21Z</time>
      </trkpt>
      <trkpt lat="44.04007" lon="6.96621">
        <ele>1207.19</ele>
        <time>2016-07-10T13:55:39Z</time>
      </trkpt>
      <trkpt lat="44.04025" lon="6.96624">
        <ele>1193.41</ele>
        <time>2016-07-10T14:08:11Z</time>
      </trkpt>
      <trkpt lat="44.04031" lon="6.9665">
        <ele>1146.55</ele>
        <time>2016-07-10T14:14:29Z</time>
      </trkpt>
      <trkpt lat="44.04039" lon="6.96673">
        <ele>1150.23</ele>
        <time>2016-07-10T14:14:51Z</time>
      </trkpt>
      <trkpt lat="44.04026" lon="6.96693">
        <ele>1146.17</ele>
        <time>2016-07-10T14:15:54Z</time>
      </trkpt>
      <trkpt lat="44.04027" lon="6.96718">
        <ele>1147.52</ele>
        <time>2016-07-10T14:17:26Z</time>
      </trkpt>
      <trkpt lat="44.04046" lon="6.96722">
        <ele>1146.98</ele>
        <time>2016-07-10T14:18:09Z</time>
      </trkpt>
      <trkpt lat="44.04051" lon="6.96746">
        <ele>1141.8</ele>
        <time>2016-07-10T14:19:15Z</time>
      </trkpt>
      <trkpt lat="44.04049" lon="6.96771">
        <ele>1143.45</ele>
        <time>2016-07-10T14:19:49Z</time>
      </trkpt>
      <trkpt lat="44.04053" lon="6.96798">
        <ele>1133.86</ele>
        <time>2016-07-10T14:22:43Z</time>
      </trkpt>
      <trkpt lat="44.04059" lon="6.96825">
        <ele>1121.8</ele>
        <time>2016-07-10T14:23:15Z</time>
      </trkpt>
      <trkpt lat="44.04063" lon="6.9685">
        <ele>1113.67</ele>
        <time>2016-07-10T14:23:31Z</time>
      </trkpt>
      <trkpt lat="44.04067" lon="6.96876">
        <ele>1117.97</ele>
        <time>2016-07-10T14:23:52Z</time>
      </trkpt>
      <trkpt lat="44.04068" lon="6.96902">
        <ele>1116.75</ele>
        <time>2016-07-10T14:24:21Z</time>
      </trkpt>
      <trkpt lat="44.04067" lon="6.96928">
        <ele>1119.05</ele>
        <time>2016-07-10T14:25:07Z</time>
      </trkpt>
      <trkpt lat="44.04051" lon="6.96944">
        <ele>1115.42</ele>
        <time>2016-07-10T14:26:18Z</time>
      </trkpt>
      <trkpt lat="44.04035" lon="6.96955">
        <ele>1104.53</ele>
        <time>2016-07-10T14:26:32Z</time>
      </trkpt>
      <trkpt lat="44.04018" lon="6.96964">
        <ele>1103.9</ele>
        <time>2016-07-10T14:27:04Z</time>
      </trkpt>
      <trkpt lat="44.04012" lon="6.96988">
        <ele>1115.76</ele>
        <time>2016-07-10T14:27:33Z</time>
      </trkpt>
      <trkpt lat="44.04018" lon="6.97013">
        <ele>1124.15</ele>
        <time>2016-07-10T14:28:07Z</time>
      </trkpt>
      <trkpt lat="44.04015" lon="6.97038">
        <ele>1128.12</ele>
        <time>2016-07-10T14:28:38Z</time>
      </trkpt>
      <trkpt lat="44.04013" lon="6.97063">
        <ele>1126.63</ele>
        <time>2016-07-10T14:29:03Z</time>
      </trkpt>
      <trkpt lat="44.04008" lon="6.97087">
        <ele>1120.72</ele>
        <time>2016-07-10T14:30:37Z</time>
      </trkpt>
      <trkpt lat="44.04008" lon="6.97113">
        <ele>1119.22</ele>
        <time>2016-07-10T14:33:03Z</time>
      </trkpt>
      <trkpt lat="44.04008" lon="6.97138">
        <ele>1115.05</ele>
        <time>2016-07-10T14:34:29Z</time>
      </trkpt>
      <trkpt lat="44.03992" lon="6.97154">
        <ele>1106.48</ele>
        <time>2016-07-10T14:35:17Z</time>
      </trkpt>
      <trkpt lat="44.03988" lon="6.97179">
        <ele>1112.93</ele>
        <time>2016-07-10T14:35:59Z</time>
      </trkpt>
      <trkpt lat="44.0398" lon="6.97202">
        <ele>1105.11</ele>
        <time>2016-07-10T14:36:51Z</time>
      </trkpt>
      <trkpt lat="44.03973" lon="6.97225">
        <ele>1091.61</ele>
        <time>2016-07-10T14:37:47Z</time>
      </trkpt>
      <trkpt lat="44.03962" lon="6.97246">
        <ele>1097.53</ele>
        <time>2016-07-10T14:39:33Z</time>
      </trkpt>
      <trkpt lat="44.03943" lon="6.97274">
        <ele>1080.52</ele>
        <time>2016-07-10T14:40:35Z</time>
      </trkpt>
      <trkpt lat="44.03946" lon="6.97302">
        <ele>1076.45</ele>
        <time>2016-07-10T14:41:48Z</time>
      </trkpt>
      <trkpt lat="44.03933" lon="6.9732">
        <ele>1069.2</ele>
        <time>2016-07-10T14:42:56Z</time>
      </trkpt>
      <trkpt lat="44.03925" lon="6.97343">
        <ele>1065.97</ele>
        <time>2016-07-10T14:43:19Z</time>
      </trkpt>
      <trkpt lat="44.03915" lon="6.97364">
        <ele>1070.7</ele>
        <time>2016-07-10T14:44:21Z</time>
      </trkpt>
      <trkpt lat="44.03916" lon="6.97389">
        <ele>1080.53</ele>
        <time>2016-07-10T14:45:22Z</time>
      </trkpt>
      <trkpt lat="44.03911" lon="6.97413">
        <ele>1071.84</ele>
        <time>2016-07-10T14:48:49Z</time>
      </trkpt>
      <trkpt lat="44.03909" lon="6.97438">
        <ele>1088.64</ele>
        <time>2016-07-10T15:01:22Z</time>
      </trkpt>
      <trkpt lat="44.03913" lon="6.97463">
        <ele>1103.11</ele>
        <time>2016-07-10T15:05:56Z</time>
      </trkpt>
      <trkpt lat="44.03924" lon="6.97483">
        <ele>1075.03</ele>
        <time>2016-07-10T15:08:08Z</time>
      </trkpt>
      <trkpt lat="44.03931" lon="6.97508">
        <ele>1083.05</ele>
        <time>2016-07-10T15:09:09Z</time>
      </trkpt>
      <trkpt lat="44.03928" lon="6.97535">
        <ele>1081.05</ele>
        <time>2016-07-10T15:25:58Z</time>
      </trkpt>
      <trkpt lat="44.0394" lon="6.97556">
        <ele>1079.72</ele>
        <time>2016-07-10T15:26:31Z</time>
      </trkpt>
      <trkpt lat="44.03936" lon="6.97582">
        <ele>1053.55</ele>
        <time>2016-07-10T15:32:56Z</time>
      </trkpt>
      <trkpt lat="44.03953" lon="6.97574">
        <ele>1028.06</ele>
        <time>2016-07-10T15:37:16Z</time>
      </trkpt>
      <trkpt lat="44.03959" lon="6.97603">
        <ele>1030.72</ele>
        <time>2016-07-10T15:39:02Z</time>
      </trkpt>
      <trkpt lat="44.03965" lon="6.97632">
        <ele>1039.86</ele>
        <time>2016-07-10T15:40:09Z</time>
      </trkpt>
    </trkseg>
  </trk>
</gpx>